Time;durP1;ratioP1;P1;durP2;ratioP2;P2;SDS_P1;SDS_P2;PMS_P1;PMS_P2;Temp;Humidity;BMP_temperature;BMP_pressure;BME280_temperature;BME280_humidity;BME280_pressure;Samples;Min_cycle;Max_cycle;Signal;HPM_P1;HPM_P2
2022/05/27 00:00:19;;;;;;;7.60;3.20;;;;;;;;;;5081216;28;20046;-72
2022/05/27 00:02:46;;;;;;;4.93;2.20;;;;;;;;;;5080902;28;20058;-72
2022/05/27 00:05:12;;;;;;;5.88;2.78;;;;;;;;;;5075655;28;20037;-73
2022/05/27 00:07:39;;;;;;;6.65;2.78;;;;;;;;;;5069593;28;20179;-73
2022/05/27 00:10:05;;;;;;;8.48;2.65;;;;;;;;;;5080866;28;20373;-72
2022/05/27 00:12:31;;;;;;;4.80;2.38;;;;;;;;;;5081798;28;20028;-72
2022/05/27 00:14:57;;;;;;;8.63;2.60;;;;;;;;;;5081994;28;20073;-71
2022/05/27 00:17:23;;;;;;;7.90;2.55;;;;;;;;;;5081167;28;20165;-73
2022/05/27 00:19:50;;;;;;;8.20;2.58;;;;;;;;;;5081826;28;20055;-71
2022/05/27 00:22:16;;;;;;;6.80;2.60;;;;;;;;;;5081914;28;20037;-72
2022/05/27 00:24:42;;;;;;;8.05;2.35;;;;;;;;;;5081571;28;20054;-71
2022/05/27 00:27:08;;;;;;;6.93;2.47;;;;;;;;;;5081430;28;20024;-71
2022/05/27 00:29:35;;;;;;;6.55;2.92;;;;;;;;;;5078354;28;20032;-71
2022/05/27 00:32:02;;;;;;;7.80;3.45;;;;;;;;;;5081190;28;20091;-73
2022/05/27 00:34:29;;;;;;;10.30;3.85;;;;;;;;;;5075440;28;20442;-72
2022/05/27 00:36:55;;;;;;;9.00;2.92;;;;;;;;;;5077153;28;20039;-71
2022/05/27 00:39:21;;;;;;;9.82;3.45;;;;;;;;;;5082010;28;20047;-71
2022/05/27 00:41:47;;;;;;;9.52;3.00;;;;;;;;;;5081382;28;20035;-71
2022/05/27 00:44:13;;;;;;;7.05;2.83;;;;;;;;;;5069365;28;20043;-73
2022/05/27 00:46:42;;;;;;;6.47;2.63;;;;;;;;;;5061679;28;20025;-73
2022/05/27 00:49:15;;;;;;;8.30;2.95;;;;;;;;;;5072358;28;20028;-71
2022/05/27 00:51:52;;;;;;;5.28;2.75;;;;;;;;;;5061726;28;20533;-71
2022/05/27 00:54:20;;;;;;;7.45;2.70;;;;;;;;;;5063934;28;20028;-71
2022/05/27 00:56:47;;;;;;;7.88;3.10;;;;;;;;;;5065087;28;20025;-73
2022/05/27 00:59:18;;;;;;;10.27;3.08;;;;;;;;;;5065517;28;20037;-72
2022/05/27 01:01:45;;;;;;;9.87;3.70;;;;;;;;;;5064717;28;20074;-73
2022/05/27 01:04:11;;;;;;;7.57;2.85;;;;;;;;;;5074982;28;20028;-72
2022/05/27 01:06:37;;;;;;;10.20;3.10;;;;;;;;;;5086114;28;20020;-72
2022/05/27 01:09:04;;;;;;;8.25;3.50;;;;;;;;;;5084515;28;20046;-71
2022/05/27 01:11:30;;;;;;;8.73;3.40;;;;;;;;;;5076705;28;20098;-72
2022/05/27 01:13:56;;;;;;;7.70;4.03;;;;;;;;;;5065327;28;20055;-72
2022/05/27 01:16:22;;;;;;;9.57;3.63;;;;;;;;;;5063764;28;20037;-72
2022/05/27 01:21:48;;;;;;;8.15;3.47;;;;;;;;;;5064440;28;20078;-73
2022/05/27 01:24:44;;;;;;;12.25;4.60;;;;;;;;;;5066986;28;20036;-72
2022/05/27 01:27:25;;;;;;;11.70;3.30;;;;;;;;;;5075518;28;20490;-72
2022/05/27 01:29:54;;;;;;;8.43;3.22;;;;;;;;;;5085189;28;20107;-73
2022/05/27 01:32:27;;;;;;;8.68;3.22;;;;;;;;;;5084442;28;20074;-72
2022/05/27 01:35:02;;;;;;;10.00;3.00;;;;;;;;;;5083216;28;20039;-72
2022/05/27 01:37:38;;;;;;;6.78;2.83;;;;;;;;;;5085028;28;20130;-72
2022/05/27 01:40:09;;;;;;;11.10;3.45;;;;;;;;;;5084647;28;20023;-72
2022/05/27 01:42:38;;;;;;;9.88;3.53;;;;;;;;;;5084262;28;20077;-72
2022/05/27 01:45:08;;;;;;;9.52;3.20;;;;;;;;;;5080941;28;20478;-72
2022/05/27 01:47:37;;;;;;;8.38;3.28;;;;;;;;;;5084188;28;20492;-71
2022/05/27 01:50:10;;;;;;;10.50;3.72;;;;;;;;;;5082396;28;20492;-72
2022/05/27 01:52:50;;;;;;;28.48;5.00;;;;;;;;;;5082973;28;20378;-72
2022/05/27 01:55:27;;;;;;;13.23;3.95;;;;;;;;;;5062501;28;20027;-72
2022/05/27 01:58:06;;;;;;;11.68;3.10;;;;;;;;;;5064958;28;20032;-72
2022/05/27 02:00:35;;;;;;;7.75;2.80;;;;;;;;;;5067129;28;20369;-72
2022/05/27 02:03:10;;;;;;;8.80;3.63;;;;;;;;;;5084078;28;20034;-72
2022/05/27 02:05:48;;;;;;;12.23;4.22;;;;;;;;;;5081713;28;20031;-72
2022/05/27 02:08:22;;;;;;;12.35;3.55;;;;;;;;;;5083437;28;20040;-73
2022/05/27 02:10:58;;;;;;;8.65;3.17;;;;;;;;;;5084066;28;20588;-72
2022/05/27 02:13:27;;;;;;;14.77;3.85;;;;;;;;;;5083947;28;20629;-71
2022/05/27 02:15:54;;;;;;;10.63;3.80;;;;;;;;;;5083062;28;20241;-73
2022/05/27 02:18:32;;;;;;;10.48;3.63;;;;;;;;;;5083276;28;20028;-72
2022/05/27 02:21:03;;;;;;;13.82;4.03;;;;;;;;;;5083479;28;20024;-71
2022/05/27 02:23:29;;;;;;;;;;;;;;;;;;5083748;28;20038;-73
2022/05/27 02:25:58;;;;;;;7.97;2.85;;;;;;;;;;5082526;28;19920;-72
2022/05/27 02:28:29;;;;;;;12.95;3.65;;;;;;;;;;5083593;28;20488;-71
2022/05/27 02:30:58;;;;;;;5.10;1.93;;;;;;;;;;5083128;28;20519;-72
2022/05/27 02:36:24;;;;;;;9.68;4.00;;;;;;;;;;5083628;28;20070;-71
2022/05/27 02:38:50;;;;;;;14.75;5.90;;;;;;;;;;5068462;28;20024;-72
2022/05/27 02:41:20;;;;;;;11.45;4.38;;;;;;;;;;5073870;28;20031;-72
2022/05/27 02:43:55;;;;;;;12.48;3.47;;;;;;;;;;5079546;28;20024;-71
2022/05/27 02:46:22;;;;;;;8.60;3.45;;;;;;;;;;5077348;28;20119;-72
2022/05/27 02:48:48;;;;;;;6.72;2.65;;;;;;;;;;5081092;28;20089;-70
2022/05/27 02:51:23;;;;;;;6.18;2.38;;;;;;;;;;5076409;28;20055;-70
2022/05/27 02:53:52;;;;;;;6.05;2.25;;;;;;;;;;5080047;28;20032;-71
2022/05/27 02:56:31;;;;;;;10.65;2.90;;;;;;;;;;5069667;28;20035;-72
2022/05/27 02:58:57;;;;;;;10.25;2.90;;;;;;;;;;5071422;28;20043;-72
2022/05/27 03:01:23;;;;;;;4.78;2.42;;;;;;;;;;5074125;28;20031;-71
2022/05/27 03:03:49;;;;;;;6.68;1.95;;;;;;;;;;5073281;28;20040;-72
2022/05/27 03:06:15;;;;;;;5.65;2.38;;;;;;;;;;5073852;28;20475;-72
2022/05/27 03:08:53;;;;;;;6.32;2.40;;;;;;;;;;5068826;28;20036;-72
2022/05/27 03:11:41;;;;;;;9.30;2.55;;;;;;;;;;5070620;28;20032;-71
2022/05/27 03:14:16;;;;;;;8.60;2.63;;;;;;;;;;5074306;28;20052;-71
2022/05/27 03:16:42;;;;;;;7.55;2.33;;;;;;;;;;5071095;28;20028;-71
2022/05/27 03:19:17;;;;;;;7.65;2.65;;;;;;;;;;5070964;28;20064;-72
2022/05/27 03:21:46;;;;;;;7.55;2.40;;;;;;;;;;5073429;28;20111;-72
2022/05/27 03:24:34;;;;;;;6.22;2.25;;;;;;;;;;5067719;28;20071;-72
2022/05/27 03:27:19;;;;;;;11.48;3.85;;;;;;;;;;5069123;28;20029;-72
2022/05/27 03:29:45;;;;;;;10.30;3.40;;;;;;;;;;5068676;28;20024;-71
2022/05/27 03:32:28;;;;;;;7.20;3.30;;;;;;;;;;5071326;28;20028;-71
2022/05/27 03:35:15;;;;;;;12.65;3.78;;;;;;;;;;5067844;28;20420;-71
2022/05/27 03:37:49;;;;;;;6.13;3.03;;;;;;;;;;5040988;28;20040;-72
2022/05/27 03:40:41;;;;;;;8.35;3.30;;;;;;;;;;5074157;28;20036;-72
2022/05/27 03:43:10;;;;;;;9.25;3.10;;;;;;;;;;5045370;28;20032;-72
2022/05/27 03:45:52;;;;;;;9.25;3.25;;;;;;;;;;5079600;28;20028;-72
2022/05/27 03:48:21;;;;;;;8.98;3.53;;;;;;;;;;5079159;28;20119;-72
2022/05/27 03:50:56;;;;;;;12.27;3.88;;;;;;;;;;5079097;28;20639;-72
2022/05/27 03:54:03;;;;;;;7.80;3.80;;;;;;;;;;5079767;28;20043;-72
2022/05/27 03:56:09;;;;;;;13.82;4.65;;;;;;;;;;5079199;28;20091;-72
2022/05/27 03:58:38;;;;;;;9.95;3.55;;;;;;;;;;5078929;28;20464;-71
2022/05/27 04:01:04;;;;;;;10.07;3.85;;;;;;;;;;5076508;28;20032;-72
2022/05/27 04:03:30;;;;;;;13.45;4.47;;;;;;;;;;5059570;28;20024;-72
2022/05/27 04:05:56;;;;;;;19.13;5.68;;;;;;;;;;5057597;28;20692;-72
2022/05/27 04:08:22;;;;;;;10.85;4.25;;;;;;;;;;5057812;28;20044;-73
2022/05/27 04:10:49;;;;;;;12.00;3.60;;;;;;;;;;5059490;28;20024;-73
2022/05/27 04:13:15;;;;;;;7.07;3.00;;;;;;;;;;5060033;28;20035;-72
2022/05/27 04:15:41;;;;;;;10.77;3.38;;;;;;;;;;5059644;28;20054;-72
2022/05/27 04:18:08;;;;;;;11.63;3.42;;;;;;;;;;5058496;28;20043;-72
2022/05/27 04:20:34;;;;;;;6.20;3.28;;;;;;;;;;5059284;28;20058;-73
2022/05/27 04:23:00;;;;;;;12.57;3.63;;;;;;;;;;5070973;28;20028;-72
2022/05/27 04:25:26;;;;;;;11.55;4.32;;;;;;;;;;5078287;28;20540;-72
2022/05/27 04:27:52;;;;;;;12.15;4.25;;;;;;;;;;5081416;28;20051;-72
2022/05/27 04:30:19;;;;;;;10.02;4.63;;;;;;;;;;5071201;28;20039;-72
2022/05/27 04:32:45;;;;;;;10.45;3.80;;;;;;;;;;5063474;28;20035;-73
2022/05/27 04:35:12;;;;;;;13.80;3.47;;;;;;;;;;5062302;28;20392;-72
2022/05/27 04:37:38;;;;;;;9.88;3.78;;;;;;;;;;5063348;28;20051;-72
2022/05/27 04:40:05;;;;;;;8.90;4.43;;;;;;;;;;5062926;28;20029;-72
2022/05/27 04:42:31;;;;;;;12.82;4.45;;;;;;;;;;5044888;28;20020;-72
2022/05/27 04:44:58;;;;;;;15.50;5.55;;;;;;;;;;5060104;28;20111;-72
2022/05/27 04:47:48;;;;;;;14.38;4.82;;;;;;;;;;5063528;28;20028;-73
2022/05/27 04:50:18;;;;;;;13.50;4.75;;;;;;;;;;5061720;28;20101;-72
2022/05/27 04:52:44;;;;;;;8.02;3.78;;;;;;;;;;5063074;28;20056;-73
2022/05/27 04:55:12;;;;;;;9.45;2.67;;;;;;;;;;5082832;28;20031;-72
2022/05/27 04:57:40;;;;;;;10.85;2.85;;;;;;;;;;5083038;28;20035;-72
2022/05/27 05:00:09;;;;;;;8.02;2.35;;;;;;;;;;5080994;28;20119;-73
2022/05/27 05:02:35;;;;;;;8.40;2.13;;;;;;;;;;5082147;28;20036;-72
2022/05/27 05:05:01;;;;;;;5.40;2.45;;;;;;;;;;5078318;28;20032;-72
2022/05/27 05:07:27;;;;;;;6.85;2.60;;;;;;;;;;5079981;28;20039;-73
2022/05/27 05:09:53;;;;;;;5.82;2.20;;;;;;;;;;5081250;28;20028;-72
2022/05/27 05:12:22;;;;;;;8.68;2.30;;;;;;;;;;5082584;28;20097;-73
2022/05/27 05:14:49;;;;;;;8.45;3.15;;;;;;;;;;5082500;28;20036;-73
2022/05/27 05:17:15;;;;;;;13.70;3.90;;;;;;;;;;5080891;28;20488;-73
2022/05/27 05:19:41;;;;;;;5.57;2.30;;;;;;;;;;5062270;28;20036;-73
2022/05/27 05:22:07;;;;;;;8.52;2.88;;;;;;;;;;5064673;28;20039;-73
2022/05/27 05:24:34;;;;;;;6.97;2.63;;;;;;;;;;5083083;28;20047;-72
2022/05/27 05:27:00;;;;;;;8.27;2.63;;;;;;;;;;5084794;28;20028;-71
2022/05/27 05:29:26;;;;;;;8.15;2.83;;;;;;;;;;5083490;28;20633;-70
2022/05/27 05:31:52;;;;;;;9.77;3.33;;;;;;;;;;5079500;28;20796;-72
2022/05/27 05:34:18;;;;;;;8.48;3.50;;;;;;;;;;5081370;28;20480;-71
2022/05/27 05:36:45;;;;;;;12.50;3.55;;;;;;;;;;5080634;28;20028;-71
2022/05/27 05:39:11;;;;;;;10.13;3.63;;;;;;;;;;5080309;28;20111;-71
2022/05/27 05:41:39;;;;;;;16.02;4.35;;;;;;;;;;5080700;28;20038;-72
2022/05/27 05:44:09;;;;;;;15.40;3.65;;;;;;;;;;5075142;28;20062;-72
2022/05/27 05:46:36;;;;;;;9.23;3.50;;;;;;;;;;5060892;28;20569;-73
2022/05/27 05:49:05;;;;;;;9.75;3.25;;;;;;;;;;5081538;28;20075;-71
2022/05/27 05:51:32;;;;;;;10.90;3.30;;;;;;;;;;5075463;28;20201;-70
2022/05/27 05:54:01;;;;;;;8.18;2.20;;;;;;;;;;5061980;28;20032;-72
2022/05/27 05:56:30;;;;;;;10.55;2.42;;;;;;;;;;5063592;28;20027;-71
2022/05/27 05:58:57;;;;;;;10.07;2.13;;;;;;;;;;5081981;28;20028;-72
2022/05/27 06:01:23;;;;;;;4.40;2.15;;;;;;;;;;5066810;28;20074;-72
2022/05/27 06:03:49;;;;;;;5.13;2.05;;;;;;;;;;5073873;28;20345;-71
2022/05/27 06:06:18;;;;;;;10.02;2.28;;;;;;;;;;5080991;28;20498;-71
2022/05/27 06:08:57;;;;;;;11.68;3.40;;;;;;;;;;5084874;28;20474;-72
2022/05/27 06:11:24;;;;;;;11.55;3.60;;;;;;;;;;5069590;28;20032;-71
2022/05/27 06:13:50;;;;;;;11.77;6.20;;;;;;;;;;5066167;28;20081;-70
2022/05/27 06:16:16;;;;;;;9.20;3.63;;;;;;;;;;5080406;28;20073;-70
2022/05/27 06:18:43;;;;;;;34.22;5.78;;;;;;;;;;5067957;28;20028;-73
2022/05/27 06:21:09;;;;;;;9.38;4.43;;;;;;;;;;5070413;28;20040;-70
2022/05/27 06:23:36;;;;;;;11.55;4.53;;;;;;;;;;5077523;28;20039;-71
2022/05/27 06:26:03;;;;;;;10.07;3.90;;;;;;;;;;5071791;28;20391;-70
2022/05/27 06:36:46;;;;;;;11.93;4.60;;;;;;;;;;5083299;28;20039;-73
2022/05/27 06:39:13;;;;;;;12.32;5.13;;;;;;;;;;5062890;28;20032;-70
2022/05/27 06:41:39;;;;;;;11.13;4.22;;;;;;;;;;5068791;28;20079;-71
2022/05/27 06:44:06;;;;;;;11.77;4.38;;;;;;;;;;5080545;28;20122;-72
2022/05/27 06:46:33;;;;;;;17.25;7.03;;;;;;;;;;5082809;28;20020;-70
2022/05/27 06:48:59;;;;;;;28.80;13.20;;;;;;;;;;5080779;28;20032;-74
2022/05/27 06:51:25;;;;;;;24.60;11.07;;;;;;;;;;5064089;28;20017;-72
2022/05/27 06:53:52;;;;;;;22.90;6.65;;;;;;;;;;5070263;28;20036;-72
2022/05/27 06:56:18;;;;;;;20.73;6.57;;;;;;;;;;5081301;28;20115;-71
2022/05/27 06:58:44;;;;;;;18.15;5.93;;;;;;;;;;5081385;28;20028;-70
2022/05/27 07:01:11;;;;;;;18.85;5.50;;;;;;;;;;5082595;28;20076;-71
2022/05/27 07:03:38;;;;;;;15.52;5.70;;;;;;;;;;5082141;28;20068;-70
2022/05/27 07:06:07;;;;;;;13.25;5.95;;;;;;;;;;5082659;28;20348;-70
2022/05/27 07:08:34;;;;;;;20.77;7.55;;;;;;;;;;5080869;28;20036;-71
2022/05/27 07:11:00;;;;;;;22.15;7.60;;;;;;;;;;5082165;28;20020;-71
2022/05/27 07:13:27;;;;;;;25.45;8.48;;;;;;;;;;5081372;28;20032;-70
2022/05/27 07:15:53;;;;;;;19.05;8.00;;;;;;;;;;5080910;28;20032;-70
2022/05/27 07:18:19;;;;;;;19.23;8.68;;;;;;;;;;5081295;28;20423;-71
2022/05/27 07:20:46;;;;;;;13.82;5.82;;;;;;;;;;5079484;28;20030;-70
2022/05/27 07:23:12;;;;;;;21.33;6.57;;;;;;;;;;5081803;28;20027;-71
2022/05/27 07:25:38;;;;;;;14.13;6.75;;;;;;;;;;5079743;28;20105;-72
2022/05/27 07:28:06;;;;;;;13.82;7.45;;;;;;;;;;5081786;28;20055;-71
2022/05/27 07:30:33;;;;;;;19.20;7.70;;;;;;;;;;5081984;28;20024;-71
2022/05/27 07:32:59;;;;;;;20.40;8.93;;;;;;;;;;5080400;28;20035;-70
2022/05/27 07:35:25;;;;;;;21.70;9.05;;;;;;;;;;5082886;28;20024;-70
2022/05/27 07:37:51;;;;;;;23.85;8.73;;;;;;;;;;5081210;28;20028;-71
2022/05/27 07:40:18;;;;;;;21.17;6.63;;;;;;;;;;5082136;28;20027;-70
2022/05/27 07:42:44;;;;;;;16.75;6.40;;;;;;;;;;5080734;28;20068;-72
2022/05/27 07:45:11;;;;;;;16.40;5.55;;;;;;;;;;5081787;28;20032;-70
2022/05/27 07:47:37;;;;;;;25.38;8.05;;;;;;;;;;5082194;28;20069;-71
2022/05/27 07:50:04;;;;;;;17.50;6.43;;;;;;;;;;5082067;28;20039;-70
2022/05/27 07:52:32;;;;;;;14.27;5.63;;;;;;;;;;5082067;28;20143;-70
2022/05/27 07:54:59;;;;;;;14.90;5.85;;;;;;;;;;5080560;28;20024;-70
2022/05/27 07:57:25;;;;;;;16.30;6.20;;;;;;;;;;5082193;28;20028;-70
2022/05/27 07:59:54;;;;;;;12.20;5.63;;;;;;;;;;5081624;28;20028;-71
2022/05/27 08:02:21;;;;;;;16.88;5.68;;;;;;;;;;5079985;28;20024;-71
2022/05/27 08:04:47;;;;;;;15.25;5.70;;;;;;;;;;5082181;28;20024;-71
2022/05/27 08:07:14;;;;;;;15.25;4.00;;;;;;;;;;5081763;28;20024;-70
2022/05/27 08:09:40;;;;;;;8.15;3.92;;;;;;;;;;5081607;28;20332;-71
2022/05/27 08:12:06;;;;;;;7.43;3.53;;;;;;;;;;5080107;28;20070;-70
2022/05/27 08:14:32;;;;;;;9.57;2.90;;;;;;;;;;5079057;28;20458;-71
2022/05/27 08:16:59;;;;;;;16.00;10.90;;;;;;;;;;5079116;28;20036;-70
2022/05/27 08:19:25;;;;;;;35.15;23.30;;;;;;;;;;5075881;28;20024;-72
2022/05/27 08:21:51;;;;;;;23.05;14.45;;;;;;;;;;5080530;28;20036;-71
2022/05/27 08:24:17;;;;;;;14.73;7.80;;;;;;;;;;5081550;28;20056;-70
2022/05/27 08:26:44;;;;;;;15.70;6.93;;;;;;;;;;5081755;28;20115;-70
2022/05/27 08:29:10;;;;;;;13.45;6.63;;;;;;;;;;5081381;28;20391;-71
2022/05/27 08:31:38;;;;;;;14.00;6.03;;;;;;;;;;5081749;28;20048;-72
2022/05/27 08:39:35;;;;;;;17.00;5.88;;;;;;;;;;5082032;28;20221;-70
2022/05/27 08:42:03;;;;;;;11.70;5.50;;;;;;;;;;5081761;28;20472;-70
2022/05/27 08:44:35;;;;;;;12.07;5.40;;;;;;;;;;5081677;28;20833;-70
2022/05/27 08:47:13;;;;;;;13.45;5.80;;;;;;;;;;5080002;28;20195;-70
2022/05/27 08:49:42;;;;;;;16.75;6.80;;;;;;;;;;5080928;28;20044;-70
2022/05/27 08:52:14;;;;;;;15.45;5.88;;;;;;;;;;5081361;28;20024;-70
2022/05/27 08:55:01;;;;;;;16.30;5.78;;;;;;;;;;5080222;28;20027;-70
2022/05/27 09:00:21;;;;;;;17.23;6.22;;;;;;;;;;5081338;28;20035;-70
2022/05/27 09:02:48;;;;;;;12.85;5.00;;;;;;;;;;5081812;28;20028;-70
2022/05/27 09:05:21;;;;;;;14.35;5.80;;;;;;;;;;5081716;28;20108;-70
2022/05/27 09:08:02;;;;;;;20.48;6.35;;;;;;;;;;5079637;28;20032;-71
2022/05/27 09:10:43;;;;;;;15.73;4.95;;;;;;;;;;5081429;28;20020;-70
2022/05/27 09:13:09;;;;;;;;;;;;;;;;;;5082451;28;20232;-70
2022/05/27 09:15:54;;;;;;;14.98;5.05;;;;;;;;;;5085004;28;20427;-71
2022/05/27 09:18:26;;;;;;;10.60;5.40;;;;;;;;;;5084800;28;20024;-70
2022/05/27 09:20:55;;;;;;;9.68;5.18;;;;;;;;;;5083393;28;20161;-70
2022/05/27 09:23:24;;;;;;;12.50;5.07;;;;;;;;;;5084739;28;20024;-70
2022/05/27 09:26:09;;;;;;;12.60;5.57;;;;;;;;;;5084322;28;20408;-70
2022/05/27 09:28:47;;;;;;;12.18;5.20;;;;;;;;;;5084500;28;20054;-71
2022/05/27 09:31:15;;;;;;;12.88;5.50;;;;;;;;;;5083481;28;20032;-70
2022/05/27 09:33:42;;;;;;;10.25;4.95;;;;;;;;;;5083717;28;20878;-70
2022/05/27 09:36:11;;;;;;;10.18;5.40;;;;;;;;;;5085250;28;20047;-70
2022/05/27 09:38:41;;;;;;;11.93;5.15;;;;;;;;;;5084202;28;20406;-70
2022/05/27 09:41:24;;;;;;;13.50;5.65;;;;;;;;;;5084862;28;20503;-71
2022/05/27 09:43:54;;;;;;;13.75;5.20;;;;;;;;;;5083763;28;20069;-70
2022/05/27 09:46:38;;;;;;;11.32;4.78;;;;;;;;;;5084322;28;20065;-70
2022/05/27 09:49:05;;;;;;;8.93;5.20;;;;;;;;;;5084348;28;20043;-70
2022/05/27 09:51:32;;;;;;;13.05;5.13;;;;;;;;;;5084351;28;20104;-70
2022/05/27 09:54:05;;;;;;;14.40;6.10;;;;;;;;;;5084009;28;20020;-72
2022/05/27 09:56:39;;;;;;;10.77;5.15;;;;;;;;;;5082904;28;20024;-70
2022/05/27 09:59:23;;;;;;;10.65;4.80;;;;;;;;;;5083874;28;20107;-70
2022/05/27 10:01:49;;;;;;;10.93;4.63;;;;;;;;;;5084309;28;20055;-70
2022/05/27 10:04:16;;;;;;;11.65;4.75;;;;;;;;;;5082770;28;20032;-70
2022/05/27 10:06:43;;;;;;;17.15;5.78;;;;;;;;;;5084122;28;20059;-70
2022/05/27 10:09:29;;;;;;;12.38;5.32;;;;;;;;;;5084141;28;20057;-70
2022/05/27 10:11:58;;;;;;;11.25;5.13;;;;;;;;;;5083973;28;20062;-70
2022/05/27 10:14:34;;;;;;;10.95;5.05;;;;;;;;;;5083891;28;20039;-70
2022/05/27 10:17:11;;;;;;;11.05;4.95;;;;;;;;;;5082029;28;20016;-70
2022/05/27 10:19:38;;;;;;;10.52;4.22;;;;;;;;;;5084044;28;20501;-71
2022/05/27 10:22:06;;;;;;;13.48;5.10;;;;;;;;;;5083636;28;20088;-72
2022/05/27 10:24:34;;;;;;;10.40;4.93;;;;;;;;;;5081590;28;20055;-72
2022/05/27 10:27:02;;;;;;;8.73;4.95;;;;;;;;;;5081638;28;20046;-72
2022/05/27 10:29:28;;;;;;;11.80;4.45;;;;;;;;;;5082927;28;20096;-72
2022/05/27 10:31:55;;;;;;;7.68;4.50;;;;;;;;;;5083048;28;20423;-72
2022/05/27 10:34:40;;;;;;;11.88;4.82;;;;;;;;;;5083310;28;20032;-72
2022/05/27 10:37:07;;;;;;;7.82;4.65;;;;;;;;;;5082975;28;20058;-71
2022/05/27 10:39:44;;;;;;;10.95;4.68;;;;;;;;;;5079874;28;20387;-75
2022/05/27 10:42:20;;;;;;;8.82;3.90;;;;;;;;;;5080196;28;20048;-74
2022/05/27 10:45:02;;;;;;;14.35;4.80;;;;;;;;;;5081221;28;20061;-76
2022/05/27 10:47:38;;;;;;;12.48;4.63;;;;;;;;;;5077753;28;20028;-74
2022/05/27 10:50:10;;;;;;;10.75;4.13;;;;;;;;;;5078789;28;20758;-73
2022/05/27 10:52:59;;;;;;;9.38;4.30;;;;;;;;;;5079925;28;20495;-78
2022/05/27 10:55:29;;;;;;;9.57;4.18;;;;;;;;;;5079207;28;20559;-77
2022/05/27 11:04:01;;;;;;;16.38;5.05;;;;;;;;;;5065607;28;20082;-74
2022/05/27 11:06:37;;;;;;;9.43;4.10;;;;;;;;;;5078734;28;20036;-73
2022/05/27 11:09:15;;;;;;;8.02;4.07;;;;;;;;;;5078722;28;20040;-77
2022/05/27 11:11:56;;;;;;;10.65;5.32;;;;;;;;;;5060978;28;20473;-75
2022/05/27 11:17:22;;;;;;;16.70;5.55;;;;;;;;;;5060213;28;20047;-74
2022/05/27 11:19:54;;;;;;;9.85;4.70;;;;;;;;;;5059538;28;20048;-76
2022/05/27 11:22:27;;;;;;;12.57;4.97;;;;;;;;;;5060071;28;20661;-74
2022/05/27 11:24:55;;;;;;;13.05;5.32;;;;;;;;;;5061220;28;20056;-74
2022/05/27 11:27:29;;;;;;;13.35;5.50;;;;;;;;;;5078221;28;20215;-79
2022/05/27 11:30:01;;;;;;;10.02;5.75;;;;;;;;;;5079793;28;20036;-78
2022/05/27 11:32:46;;;;;;;12.20;5.80;;;;;;;;;;5078440;28;20027;-73
2022/05/27 11:35:15;;;;;;;12.30;5.47;;;;;;;;;;5078405;28;20028;-76
2022/05/27 11:37:54;;;;;;;11.93;6.05;;;;;;;;;;5079900;28;20046;-73
2022/05/27 11:40:39;;;;;;;15.07;6.10;;;;;;;;;;5078668;28;20502;-75
2022/05/27 11:43:20;;;;;;;19.13;9.48;;;;;;;;;;5079979;28;20036;-74
2022/05/27 11:46:05;;;;;;;15.15;9.00;;;;;;;;;;5076658;28;20032;-79
2022/05/27 11:48:46;;;;;;;17.65;7.40;;;;;;;;;;5079596;28;20078;-75
2022/05/27 11:51:12;;;;;;;;;;;;;;;;;;5078469;28;20024;-73
2022/05/27 11:53:46;;;;;;;11.50;6.03;;;;;;;;;;5077049;28;19954;-73
2022/05/27 11:56:30;;;;;;;9.43;5.55;;;;;;;;;;5080225;28;20031;-74
2022/05/27 11:58:58;;;;;;;12.27;5.88;;;;;;;;;;5080460;28;20016;-70
2022/05/27 12:01:33;;;;;;;11.45;7.78;;;;;;;;;;5081993;28;20032;-70
2022/05/27 12:04:08;;;;;;;13.38;6.50;;;;;;;;;;5082081;28;20016;-70
2022/05/27 12:06:39;;;;;;;7.80;5.63;;;;;;;;;;5081942;28;20028;-70
2022/05/27 12:09:28;;;;;;;14.48;6.13;;;;;;;;;;5080164;28;20426;-70
2022/05/27 12:11:57;;;;;;;14.38;6.63;;;;;;;;;;5081991;28;20028;-70
2022/05/27 12:14:30;;;;;;;11.35;6.90;;;;;;;;;;5080058;28;20048;-72
2022/05/27 12:16:57;;;;;;;15.55;8.35;;;;;;;;;;5081780;28;20118;-70
2022/05/27 12:19:29;;;;;;;10.98;6.45;;;;;;;;;;5078808;28;20031;-72
2022/05/27 12:22:21;;;;;;;9.98;6.20;;;;;;;;;;5080263;28;20238;-71
2022/05/27 12:24:47;;;;;;;;;;;;;;;;;;5080737;28;20059;-70
2022/05/27 12:27:14;;;;;;;14.35;5.80;;;;;;;;;;5079253;28;20452;-69
2022/05/27 12:29:42;;;;;;;10.52;5.32;;;;;;;;;;5081566;28;20036;-70
2022/05/27 12:32:09;;;;;;;12.40;5.90;;;;;;;;;;5080612;28;20050;-70
2022/05/27 12:34:36;;;;;;;11.52;5.57;;;;;;;;;;5082194;28;20024;-70
2022/05/27 12:37:22;;;;;;;14.40;6.38;;;;;;;;;;5082055;28;20035;-70
2022/05/27 12:39:49;;;;;;;12.15;6.35;;;;;;;;;;5081587;28;20357;-70
2022/05/27 12:42:19;;;;;;;16.27;6.20;;;;;;;;;;5080406;28;20038;-70
2022/05/27 12:44:46;;;;;;;13.57;6.80;;;;;;;;;;5080257;28;20095;-70
2022/05/27 12:47:22;;;;;;;12.77;6.35;;;;;;;;;;5081598;28;20042;-70
2022/05/27 12:50:06;;;;;;;10.68;5.80;;;;;;;;;;5084839;28;20593;-71
2022/05/27 12:52:32;;;;;;;16.10;6.75;;;;;;;;;;5086146;28;20031;-72
2022/05/27 12:55:04;;;;;;;13.25;7.22;;;;;;;;;;5085660;28;20221;-73
2022/05/27 13:03:07;;;;;;;12.02;5.93;;;;;;;;;;5085533;28;20384;-72
2022/05/27 13:06:03;;;;;;;11.65;6.20;;;;;;;;;;5084973;28;20060;-72
2022/05/27 13:08:34;;;;;;;13.23;5.05;;;;;;;;;;5085266;28;20039;-73
2022/05/27 13:11:00;;;;;;;12.48;5.78;;;;;;;;;;5085034;28;20529;-73
2022/05/27 13:13:28;;;;;;;11.27;5.07;;;;;;;;;;5085182;28;20024;-70
2022/05/27 13:16:09;;;;;;;13.75;5.05;;;;;;;;;;5083883;28;20096;-72
2022/05/27 13:18:39;;;;;;;14.38;4.88;;;;;;;;;;5085222;28;20034;-73
2022/05/27 13:21:24;;;;;;;12.52;4.72;;;;;;;;;;5085438;28;20046;-73
2022/05/27 13:23:51;;;;;;;12.13;4.95;;;;;;;;;;5084146;28;20028;-70
2022/05/27 13:26:35;;;;;;;14.15;5.43;;;;;;;;;;5084060;28;20411;-70
2022/05/27 13:29:01;;;;;;;11.50;5.53;;;;;;;;;;5084759;28;20438;-71
2022/05/27 13:31:34;;;;;;;18.33;6.65;;;;;;;;;;5083077;28;20031;-70
2022/05/27 13:34:20;;;;;;;15.10;7.28;;;;;;;;;;5085079;28;20035;-71
2022/05/27 13:36:56;;;;;;;11.45;5.10;;;;;;;;;;5083148;28;20028;-72
2022/05/27 13:39:25;;;;;;;11.77;5.35;;;;;;;;;;5084539;28;20062;-70
2022/05/27 13:41:52;;;;;;;15.98;5.45;;;;;;;;;;5085064;28;20044;-70
2022/05/27 13:44:20;;;;;;;9.88;4.90;;;;;;;;;;5084742;28;20031;-70
2022/05/27 13:46:50;;;;;;;10.85;4.90;;;;;;;;;;5084848;28;20035;-70
2022/05/27 13:49:22;;;;;;;12.38;4.80;;;;;;;;;;5082924;28;20044;-71
2022/05/27 13:51:49;;;;;;;13.32;4.50;;;;;;;;;;5084080;28;20104;-70
2022/05/27 13:54:19;;;;;;;13.35;5.35;;;;;;;;;;5081065;28;20029;-73
2022/05/27 13:56:56;;;;;;;9.63;4.07;;;;;;;;;;5083363;28;20637;-71
2022/05/27 13:59:28;;;;;;;17.95;4.78;;;;;;;;;;5082349;28;20119;-71
2022/05/27 14:01:56;;;;;;;;;;;;;;;;;;5084370;28;20024;-70
2022/05/27 14:04:44;;;;;;;13.45;5.25;;;;;;;;;;5084016;28;19915;-69
2022/05/27 14:07:20;;;;;;;15.27;5.43;;;;;;;;;;5084445;28;20089;-71
2022/05/27 14:09:52;;;;;;;15.38;5.40;;;;;;;;;;5083503;28;20419;-70
2022/05/27 14:12:19;;;;;;;14.30;5.72;;;;;;;;;;5083863;28;20508;-72
2022/05/27 14:14:50;;;;;;;12.27;5.28;;;;;;;;;;5084045;28;20040;-71
2022/05/27 14:17:18;;;;;;;14.05;5.93;;;;;;;;;;5084107;28;20020;-70
2022/05/27 14:19:44;;;;;;;14.30;4.85;;;;;;;;;;5083712;28;20035;-70
2022/05/27 14:25:02;;;;;;;17.33;6.05;;;;;;;;;;5082957;28;20525;-70
2022/05/27 14:27:30;;;;;;;12.27;6.07;;;;;;;;;;5083536;28;20455;-71
2022/05/27 14:29:57;;;;;;;16.70;5.80;;;;;;;;;;5083437;28;20044;-71
2022/05/27 14:32:25;;;;;;;13.82;5.55;;;;;;;;;;5081916;28;20023;-70
2022/05/27 14:34:56;;;;;;;12.18;5.35;;;;;;;;;;5083429;28;20024;-70
2022/05/27 14:37:22;;;;;;;14.88;8.60;;;;;;;;;;5083922;28;20028;-70
2022/05/27 14:39:52;;;;;;;12.50;7.95;;;;;;;;;;5083584;28;20024;-70
2022/05/27 14:42:19;;;;;;;14.35;7.22;;;;;;;;;;5083474;28;20236;-70
2022/05/27 14:44:46;;;;;;;12.75;5.82;;;;;;;;;;5082019;28;20025;-70
2022/05/27 14:47:21;;;;;;;12.88;6.15;;;;;;;;;;5082475;28;20062;-70
2022/05/27 14:49:52;;;;;;;12.75;5.80;;;;;;;;;;5083133;28;20039;-70
2022/05/27 14:52:27;;;;;;;23.90;9.70;;;;;;;;;;5083339;28;20039;-70
2022/05/27 14:54:55;;;;;;;29.02;17.55;;;;;;;;;;5083033;28;20593;-70
2022/05/27 14:57:28;;;;;;;19.42;11.23;;;;;;;;;;5081732;28;20058;-70
2022/05/27 14:59:54;;;;;;;22.05;9.95;;;;;;;;;;5082927;28;20094;-71
2022/05/27 15:02:21;;;;;;;18.30;8.13;;;;;;;;;;5082658;28;20024;-75
2022/05/27 15:05:16;;;;;;;15.18;6.32;;;;;;;;;;5081623;28;20051;-72
2022/05/27 15:07:44;;;;;;;13.75;5.80;;;;;;;;;;5064665;28;20039;-73
2022/05/27 15:10:22;;;;;;;13.73;6.53;;;;;;;;;;5076748;28;20028;-74
2022/05/27 15:12:48;;;;;;;19.58;8.32;;;;;;;;;;5079357;28;20028;-74
2022/05/27 15:15:47;;;;;;;15.07;7.22;;;;;;;;;;5080719;28;20648;-74
2022/05/27 15:18:14;;;;;;;12.75;5.68;;;;;;;;;;5036076;28;20581;-76
2022/05/27 15:20:44;;;;;;;13.10;5.80;;;;;;;;;;5078954;28;20024;-74
2022/05/27 15:23:10;;;;;;;16.30;6.72;;;;;;;;;;5080511;28;20024;-75
2022/05/27 15:25:39;;;;;;;16.73;6.85;;;;;;;;;;5080488;28;20073;-74
2022/05/27 15:33:33;;;;;;;14.77;5.55;;;;;;;;;;5059660;28;20035;-74
2022/05/27 15:36:00;;;;;;;13.32;6.22;;;;;;;;;;5060426;28;20071;-75
2022/05/27 15:38:28;;;;;;;12.48;6.40;;;;;;;;;;5072281;28;20119;-76
2022/05/27 15:40:55;;;;;;;19.95;6.82;;;;;;;;;;5077998;28;20150;-74